sensor_id;sensor_type;location;lat;lon;timestamp;P1;P2;P0
77411;PMS7003;66484;49.968;19.140;2022-12-29T13:03:44;23.00;17.50;12.00
77411;PMS7003;66484;49.968;19.140;2022-12-29T13:23:27;31.67;27.00;16.00
77411;PMS7003;66484;49.968;19.140;2022-12-29T13:26:06;17.67;17.67;11.00
77411;PMS7003;66484;49.968;19.140;2022-12-29T13:31:15;28.50;28.00;19.75
77411;PMS7003;66484;49.968;19.140;2022-12-29T13:33:59;31.25;23.75;18.00
77411;PMS7003;66484;49.968;19.140;2022-12-29T13:39:19;36.00;32.50;21.75
77411;PMS7003;66484;49.968;19.140;2022-12-29T13:41:49;33.00;27.75;18.50
77411;PMS7003;66484;49.968;19.140;2022-12-29T13:44:22;35.50;29.00;21.00
77411;PMS7003;66484;49.968;19.140;2022-12-29T13:49:51;24.50;20.25;14.00
77411;PMS7003;66484;49.968;19.140;2022-12-29T13:52:22;31.00;28.50;19.75
77411;PMS7003;66484;49.968;19.140;2022-12-29T13:55:36;17.75;16.50;11.50
77411;PMS7003;66484;49.968;19.140;2022-12-29T13:57:49;21.00;19.00;14.00
77411;PMS7003;66484;49.968;19.140;2022-12-29T14:00:24;25.50;23.25;15.00
77411;PMS7003;66484;49.968;19.140;2022-12-29T14:06:21;18.50;17.75;10.25
77411;PMS7003;66484;49.968;19.140;2022-12-29T14:08:55;20.00;19.50;15.00
77411;PMS7003;66484;49.968;19.140;2022-12-29T14:11:28;13.25;12.50;7.75
77411;PMS7003;66484;49.968;19.140;2022-12-29T14:13:56;24.50;22.00;15.50
77411;PMS7003;66484;49.968;19.140;2022-12-29T14:16:32;27.50;24.75;16.50
77411;PMS7003;66484;49.968;19.140;2022-12-29T14:19:09;26.50;25.50;18.00
77411;PMS7003;66484;49.968;19.140;2022-12-29T14:21:39;29.00;26.50;17.75
77411;PMS7003;66484;49.968;19.140;2022-12-29T14:34:50;27.00;26.00;17.50
77411;PMS7003;66484;49.968;19.140;2022-12-29T14:37:26;36.25;32.25;18.50
77411;PMS7003;66484;49.968;19.140;2022-12-29T14:40:18;34.75;26.00;18.25
77411;PMS7003;66484;49.968;19.140;2022-12-29T14:42:51;33.00;28.75;21.75
77411;PMS7003;66484;49.968;19.140;2022-12-29T14:47:45;19.00;15.25;12.25
77411;PMS7003;66484;49.968;19.140;2022-12-29T14:50:17;29.75;24.25;15.50
77411;PMS7003;66484;49.968;19.140;2022-12-29T14:52:50;24.75;22.50;15.25
77411;PMS7003;66484;49.968;19.140;2022-12-29T14:57:44;32.00;31.00;20.75
77411;PMS7003;66484;49.968;19.140;2022-12-29T15:00:23;57.25;45.50;28.25
77411;PMS7003;66484;49.968;19.140;2022-12-29T15:05:47;81.50;56.00;34.00
77411;PMS7003;66484;49.968;19.140;2022-12-29T15:08:17;109.25;93.75;46.75
77411;PMS7003;66484;49.968;19.140;2022-12-29T15:10:59;105.75;88.50;46.75
77411;PMS7003;66484;49.968;19.140;2022-12-29T15:13:38;69.00;53.50;36.00
77411;PMS7003;66484;49.968;19.140;2022-12-29T15:18:51;102.00;85.75;50.00
77411;PMS7003;66484;49.968;19.140;2022-12-29T15:21:19;79.50;62.75;37.25
77411;PMS7003;66484;49.968;19.140;2022-12-29T15:23:56;56.75;45.25;29.75
77411;PMS7003;66484;49.968;19.140;2022-12-29T15:26:22;46.25;37.50;24.00
77411;PMS7003;66484;49.968;19.140;2022-12-29T15:28:50;41.75;34.75;17.50
77411;PMS7003;66484;49.968;19.140;2022-12-29T15:31:18;51.50;37.00;23.25
77411;PMS7003;66484;49.968;19.140;2022-12-29T15:33:50;60.75;45.50;27.00
77411;PMS7003;66484;49.968;19.140;2022-12-29T15:38:47;67.50;54.50;35.75
77411;PMS7003;66484;49.968;19.140;2022-12-29T15:41:29;75.75;60.50;38.25
77411;PMS7003;66484;49.968;19.140;2022-12-29T15:44:32;93.25;76.25;45.75
77411;PMS7003;66484;49.968;19.140;2022-12-29T15:47:01;83.00;71.25;42.25
77411;PMS7003;66484;49.968;19.140;2022-12-29T15:49:29;84.00;69.00;40.50
77411;PMS7003;66484;49.968;19.140;2022-12-29T15:51:55;75.75;59.50;36.25
77411;PMS7003;66484;49.968;19.140;2022-12-29T15:54:21;77.50;58.00;37.00
77411;PMS7003;66484;49.968;19.140;2022-12-29T15:56:49;68.50;51.75;32.75
77411;PMS7003;66484;49.968;19.140;2022-12-29T15:59:28;66.00;51.75;32.25
77411;PMS7003;66484;49.968;19.140;2022-12-29T16:01:56;65.50;51.50;33.50
77411;PMS7003;66484;49.968;19.140;2022-12-29T16:04:24;60.00;47.50;30.75
77411;PMS7003;66484;49.968;19.140;2022-12-29T16:07:02;40.00;25.25;2.25
77411;PMS7003;66484;49.968;19.140;2022-12-29T16:09:33;92.75;82.25;46.75
77411;PMS7003;66484;49.968;19.140;2022-12-29T16:12:06;66.25;52.00;31.25
77411;PMS7003;66484;49.968;19.140;2022-12-29T16:14:45;56.00;44.75;27.50
77411;PMS7003;66484;49.968;19.140;2022-12-29T16:17:12;53.75;37.25;26.50
77411;PMS7003;66484;49.968;19.140;2022-12-29T16:19:52;53.50;38.50;24.00
77411;PMS7003;66484;49.968;19.140;2022-12-29T16:22:31;68.75;54.00;34.25
77411;PMS7003;66484;49.968;19.140;2022-12-29T16:27:56;63.50;51.00;32.00
77411;PMS7003;66484;49.968;19.140;2022-12-29T16:30:27;78.50;57.25;37.50
77411;PMS7003;66484;49.968;19.140;2022-12-29T16:32:55;81.00;65.00;42.25
77411;PMS7003;66484;49.968;19.140;2022-12-29T16:35:26;81.75;65.00;41.25
77411;PMS7003;66484;49.968;19.140;2022-12-29T16:38:06;74.75;58.50;39.25
77411;PMS7003;66484;49.968;19.140;2022-12-29T16:40:37;69.50;51.25;32.00
77411;PMS7003;66484;49.968;19.140;2022-12-29T16:43:18;68.00;53.50;35.00
77411;PMS7003;66484;49.968;19.140;2022-12-29T16:50:47;78.00;62.50;39.00
77411;PMS7003;66484;49.968;19.140;2022-12-29T16:53:31;80.00;59.00;38.50
77411;PMS7003;66484;49.968;19.140;2022-12-29T16:56:05;88.25;75.75;42.00
77411;PMS7003;66484;49.968;19.140;2022-12-29T16:58:34;78.00;57.25;36.75
77411;PMS7003;66484;49.968;19.140;2022-12-29T17:01:02;65.25;53.50;35.25
77411;PMS7003;66484;49.968;19.140;2022-12-29T17:03:39;69.75;53.00;33.50
77411;PMS7003;66484;49.968;19.140;2022-12-29T17:06:14;68.75;54.00;34.00
77411;PMS7003;66484;49.968;19.140;2022-12-29T17:08:42;76.75;61.75;37.00
77411;PMS7003;66484;49.968;19.140;2022-12-29T17:14:20;84.75;70.75;41.25
77411;PMS7003;66484;49.968;19.140;2022-12-29T17:16:54;105.00;86.25;47.75
77411;PMS7003;66484;49.968;19.140;2022-12-29T17:19:22;81.25;65.50;40.25
77411;PMS7003;66484;49.968;19.140;2022-12-29T17:21:54;88.50;60.50;37.75
77411;PMS7003;66484;49.968;19.140;2022-12-29T17:24:20;78.25;58.00;36.00
77411;PMS7003;66484;49.968;19.140;2022-12-29T17:26:51;93.00;75.50;44.00
77411;PMS7003;66484;49.968;19.140;2022-12-29T17:32:05;83.75;67.50;42.00
77411;PMS7003;66484;49.968;19.140;2022-12-29T17:34:32;71.50;54.00;33.75
77411;PMS7003;66484;49.968;19.140;2022-12-29T17:36:58;65.75;53.50;34.75
77411;PMS7003;66484;49.968;19.140;2022-12-29T17:39:24;69.75;53.75;34.75
77411;PMS7003;66484;49.968;19.140;2022-12-29T17:41:50;68.75;54.00;35.25
77411;PMS7003;66484;49.968;19.140;2022-12-29T17:44:16;63.00;50.50;31.00
77411;PMS7003;66484;49.968;19.140;2022-12-29T17:46:44;57.75;44.00;29.25
77411;PMS7003;66484;49.968;19.140;2022-12-29T17:49:15;58.50;47.50;31.25
77411;PMS7003;66484;49.968;19.140;2022-12-29T17:51:43;54.00;45.75;31.25
77411;PMS7003;66484;49.968;19.140;2022-12-29T17:54:21;63.50;50.25;29.75
77411;PMS7003;66484;49.968;19.140;2022-12-29T17:56:48;66.00;52.50;35.25
77411;PMS7003;66484;49.968;19.140;2022-12-29T17:59:14;72.00;57.25;35.75
77411;PMS7003;66484;49.968;19.140;2022-12-29T18:01:41;82.50;68.25;38.50
77411;PMS7003;66484;49.968;19.140;2022-12-29T18:04:18;101.50;90.50;45.50
77411;PMS7003;66484;49.968;19.140;2022-12-29T18:06:45;91.75;77.50;43.25
77411;PMS7003;66484;49.968;19.140;2022-12-29T18:09:11;78.25;62.25;37.50
77411;PMS7003;66484;49.968;19.140;2022-12-29T18:11:38;81.50;64.25;40.25
77411;PMS7003;66484;49.968;19.140;2022-12-29T18:14:12;93.75;84.25;50.75
77411;PMS7003;66484;49.968;19.140;2022-12-29T18:16:39;121.00;106.00;58.50
77411;PMS7003;66484;49.968;19.140;2022-12-29T18:19:05;90.25;74.50;43.75
77411;PMS7003;66484;49.968;19.140;2022-12-29T18:21:31;89.50;73.75;45.00
77411;PMS7003;66484;49.968;19.140;2022-12-29T18:23:57;73.25;56.00;31.75
77411;PMS7003;66484;49.968;19.140;2022-12-29T18:26:25;90.00;78.25;48.50
77411;PMS7003;66484;49.968;19.140;2022-12-29T18:28:56;97.25;86.50;50.75
77411;PMS7003;66484;49.968;19.140;2022-12-29T18:31:24;80.00;62.00;42.50
77411;PMS7003;66484;49.968;19.140;2022-12-29T18:33:52;81.50;63.25;36.50
77411;PMS7003;66484;49.968;19.140;2022-12-29T18:36:19;105.25;89.00;49.75
77411;PMS7003;66484;49.968;19.140;2022-12-29T18:38:45;141.75;124.25;71.25
77411;PMS7003;66484;49.968;19.140;2022-12-29T18:41:19;98.50;89.50;50.50
77411;PMS7003;66484;49.968;19.140;2022-12-29T18:43:49;84.25;66.50;45.00
77411;PMS7003;66484;49.968;19.140;2022-12-29T18:46:16;73.00;54.00;34.50
77411;PMS7003;66484;49.968;19.140;2022-12-29T18:48:42;71.00;56.75;34.50
77411;PMS7003;66484;49.968;19.140;2022-12-29T18:51:15;81.25;60.00;38.00
77411;PMS7003;66484;49.968;19.140;2022-12-29T18:53:44;70.00;52.75;33.50
77411;PMS7003;66484;49.968;19.140;2022-12-29T18:56:11;71.00;55.00;36.75
77411;PMS7003;66484;49.968;19.140;2022-12-29T18:58:37;71.50;53.50;35.25
77411;PMS7003;66484;49.968;19.140;2022-12-29T19:01:03;71.75;56.50;36.75
77411;PMS7003;66484;49.968;19.140;2022-12-29T19:03:29;93.75;74.75;46.50
77411;PMS7003;66484;49.968;19.140;2022-12-29T19:05:56;95.75;89.75;54.25
77411;PMS7003;66484;49.968;19.140;2022-12-29T19:08:21;90.75;79.75;47.75
77411;PMS7003;66484;49.968;19.140;2022-12-29T19:10:50;187.00;167.25;90.00
77411;PMS7003;66484;49.968;19.140;2022-12-29T19:13:17;101.00;84.50;49.00
77411;PMS7003;66484;49.968;19.140;2022-12-29T19:15:45;76.00;57.25;37.25
77411;PMS7003;66484;49.968;19.140;2022-12-29T19:18:13;69.75;53.25;37.50
77411;PMS7003;66484;49.968;19.140;2022-12-29T19:20:44;81.75;59.75;38.25
77411;PMS7003;66484;49.968;19.140;2022-12-29T19:23:15;194.00;152.75;83.75
77411;PMS7003;66484;49.968;19.140;2022-12-29T19:25:44;127.00;112.00;59.50
77411;PMS7003;66484;49.968;19.140;2022-12-29T19:28:20;128.00;106.75;57.00
77411;PMS7003;66484;49.968;19.140;2022-12-29T19:30:51;111.75;96.25;56.75
77411;PMS7003;66484;49.968;19.140;2022-12-29T19:33:17;96.25;84.50;51.50
77411;PMS7003;66484;49.968;19.140;2022-12-29T19:35:44;114.00;98.75;56.00
77411;PMS7003;66484;49.968;19.140;2022-12-29T19:38:16;69.50;55.25;36.50
77411;PMS7003;66484;49.968;19.140;2022-12-29T19:40:46;76.00;57.25;36.75
77411;PMS7003;66484;49.968;19.140;2022-12-29T19:43:14;74.00;56.00;35.00
77411;PMS7003;66484;49.968;19.140;2022-12-29T19:45:42;70.25;55.75;35.50
77411;PMS7003;66484;49.968;19.140;2022-12-29T19:48:11;88.75;74.00;46.50
77411;PMS7003;66484;49.968;19.140;2022-12-29T19:50:39;97.50;86.50;55.00
77411;PMS7003;66484;49.968;19.140;2022-12-29T19:53:06;88.00;65.50;40.75
77411;PMS7003;66484;49.968;19.140;2022-12-29T19:55:32;89.00;73.00;42.00
77411;PMS7003;66484;49.968;19.140;2022-12-29T19:58:00;76.75;57.75;35.25
77411;PMS7003;66484;49.968;19.140;2022-12-29T20:00:27;74.25;57.75;36.50
77411;PMS7003;66484;49.968;19.140;2022-12-29T20:02:52;68.75;53.50;35.00
77411;PMS7003;66484;49.968;19.140;2022-12-29T20:05:18;66.50;53.00;34.25
77411;PMS7003;66484;49.968;19.140;2022-12-29T20:07:44;67.50;53.50;33.75
77411;PMS7003;66484;49.968;19.140;2022-12-29T20:10:10;64.00;52.25;35.00
77411;PMS7003;66484;49.968;19.140;2022-12-29T20:12:36;72.00;57.00;35.00
77411;PMS7003;66484;49.968;19.140;2022-12-29T20:15:04;68.50;51.25;33.50
77411;PMS7003;66484;49.968;19.140;2022-12-29T20:17:31;60.75;48.50;31.00
77411;PMS7003;66484;49.968;19.140;2022-12-29T20:19:56;53.50;43.50;28.75
77411;PMS7003;66484;49.968;19.140;2022-12-29T20:22:22;56.25;47.00;30.50
77411;PMS7003;66484;49.968;19.140;2022-12-29T20:24:48;64.25;48.25;30.00
77411;PMS7003;66484;49.968;19.140;2022-12-29T20:27:14;65.25;49.50;30.00
77411;PMS7003;66484;49.968;19.140;2022-12-29T20:29:40;53.00;43.00;28.75
77411;PMS7003;66484;49.968;19.140;2022-12-29T20:32:11;55.00;44.50;29.50
77411;PMS7003;66484;49.968;19.140;2022-12-29T20:34:40;50.75;41.50;29.00
77411;PMS7003;66484;49.968;19.140;2022-12-29T20:37:07;57.75;45.50;30.00
77411;PMS7003;66484;49.968;19.140;2022-12-29T20:39:34;67.75;53.25;34.00
77411;PMS7003;66484;49.968;19.140;2022-12-29T20:42:00;51.75;39.00;28.00
77411;PMS7003;66484;49.968;19.140;2022-12-29T20:44:27;48.25;39.00;26.00
77411;PMS7003;66484;49.968;19.140;2022-12-29T20:46:54;53.00;43.75;29.25
77411;PMS7003;66484;49.968;19.140;2022-12-29T20:49:20;68.00;51.75;33.00
77411;PMS7003;66484;49.968;19.140;2022-12-29T20:51:46;78.00;60.00;36.50
77411;PMS7003;66484;49.968;19.140;2022-12-29T20:54:12;63.00;50.25;32.50
77411;PMS7003;66484;49.968;19.140;2022-12-29T20:56:38;40.75;24.50;2.25
77411;PMS7003;66484;49.968;19.140;2022-12-29T20:59:05;65.50;48.75;26.50
77411;PMS7003;66484;49.968;19.140;2022-12-29T21:01:31;60.25;48.75;30.25
77411;PMS7003;66484;49.968;19.140;2022-12-29T21:03:58;52.50;43.00;27.50
77411;PMS7003;66484;49.968;19.140;2022-12-29T21:06:24;16.25;14.00;9.50
77411;PMS7003;66484;49.968;19.140;2022-12-29T21:08:50;54.00;42.75;27.25
77411;PMS7003;66484;49.968;19.140;2022-12-29T21:11:18;51.50;43.00;28.00
77411;PMS7003;66484;49.968;19.140;2022-12-29T21:13:46;45.75;38.00;23.75
77411;PMS7003;66484;49.968;19.140;2022-12-29T21:16:12;47.25;37.75;25.75
77411;PMS7003;66484;49.968;19.140;2022-12-29T21:18:40;59.50;47.25;29.25
77411;PMS7003;66484;49.968;19.140;2022-12-29T21:21:24;62.00;48.25;32.00
77411;PMS7003;66484;49.968;19.140;2022-12-29T21:23:59;57.75;46.00;31.25
77411;PMS7003;66484;49.968;19.140;2022-12-29T21:26:30;53.75;42.75;29.00
77411;PMS7003;66484;49.968;19.140;2022-12-29T21:28:57;61.25;49.25;32.25
77411;PMS7003;66484;49.968;19.140;2022-12-29T21:31:27;78.25;58.00;36.25
77411;PMS7003;66484;49.968;19.140;2022-12-29T21:33:55;80.00;62.00;39.50
77411;PMS7003;66484;49.968;19.140;2022-12-29T21:36:22;70.75;53.50;34.50
77411;PMS7003;66484;49.968;19.140;2022-12-29T21:38:50;72.75;56.00;35.25
77411;PMS7003;66484;49.968;19.140;2022-12-29T21:41:16;71.00;54.50;35.00
77411;PMS7003;66484;49.968;19.140;2022-12-29T21:43:42;72.00;55.00;33.75
77411;PMS7003;66484;49.968;19.140;2022-12-29T21:46:30;68.75;52.50;34.00
77411;PMS7003;66484;49.968;19.140;2022-12-29T21:48:57;65.50;49.25;33.50
77411;PMS7003;66484;49.968;19.140;2022-12-29T21:51:22;61.00;49.25;33.00
77411;PMS7003;66484;49.968;19.140;2022-12-29T21:54:07;74.50;58.75;35.50
77411;PMS7003;66484;49.968;19.140;2022-12-29T21:56:52;76.50;59.00;37.25
77411;PMS7003;66484;49.968;19.140;2022-12-29T21:59:19;64.75;52.25;36.50
77411;PMS7003;66484;49.968;19.140;2022-12-29T22:02:09;72.50;54.25;33.25
77411;PMS7003;66484;49.968;19.140;2022-12-29T22:04:59;64.50;49.25;33.25
77411;PMS7003;66484;49.968;19.140;2022-12-29T22:07:43;69.50;54.75;34.00
77411;PMS7003;66484;49.968;19.140;2022-12-29T22:10:28;91.50;74.00;44.50
77411;PMS7003;66484;49.968;19.140;2022-12-29T22:13:12;78.25;59.75;40.00
77411;PMS7003;66484;49.968;19.140;2022-12-29T22:15:38;63.00;50.00;33.25
77411;PMS7003;66484;49.968;19.140;2022-12-29T22:18:04;60.00;47.25;31.75
77411;PMS7003;66484;49.968;19.140;2022-12-29T22:20:31;54.25;44.00;28.00
77411;PMS7003;66484;49.968;19.140;2022-12-29T22:22:59;69.50;50.00;31.75
77411;PMS7003;66484;49.968;19.140;2022-12-29T22:25:25;72.50;58.75;36.00
77411;PMS7003;66484;49.968;19.140;2022-12-29T22:27:51;78.00;59.50;39.25
77411;PMS7003;66484;49.968;19.140;2022-12-29T22:30:19;65.75;52.00;27.50
77411;PMS7003;66484;49.968;19.140;2022-12-29T22:32:45;68.00;52.25;33.75
77411;PMS7003;66484;49.968;19.140;2022-12-29T22:35:11;56.25;42.00;22.50
77411;PMS7003;66484;49.968;19.140;2022-12-29T22:37:38;63.00;49.25;31.25
77411;PMS7003;66484;49.968;19.140;2022-12-29T22:40:06;68.50;53.75;33.25
77411;PMS7003;66484;49.968;19.140;2022-12-29T22:42:34;68.00;54.00;34.25
77411;PMS7003;66484;49.968;19.140;2022-12-29T22:45:00;63.00;51.25;31.25
77411;PMS7003;66484;49.968;19.140;2022-12-29T22:47:25;65.00;52.75;34.25
77411;PMS7003;66484;49.968;19.140;2022-12-29T22:49:51;73.75;58.00;38.75
77411;PMS7003;66484;49.968;19.140;2022-12-29T22:52:17;83.50;64.50;39.00
77411;PMS7003;66484;49.968;19.140;2022-12-29T22:54:43;80.25;60.25;38.25
77411;PMS7003;66484;49.968;19.140;2022-12-29T22:57:09;68.50;55.25;34.25
77411;PMS7003;66484;49.968;19.140;2022-12-29T22:59:35;68.00;51.25;33.00
77411;PMS7003;66484;49.968;19.140;2022-12-29T23:02:00;66.75;53.75;33.00
77411;PMS7003;66484;49.968;19.140;2022-12-29T23:04:26;63.75;53.00;35.00
77411;PMS7003;66484;49.968;19.140;2022-12-29T23:06:52;62.50;50.75;31.75
77411;PMS7003;66484;49.968;19.140;2022-12-29T23:09:19;61.25;49.75;33.00
77411;PMS7003;66484;49.968;19.140;2022-12-29T23:11:47;60.75;49.00;31.75
77411;PMS7003;66484;49.968;19.140;2022-12-29T23:14:13;72.25;53.00;33.75
77411;PMS7003;66484;49.968;19.140;2022-12-29T23:16:41;71.00;56.00;34.50
77411;PMS7003;66484;49.968;19.140;2022-12-29T23:19:09;73.25;56.25;36.00
77411;PMS7003;66484;49.968;19.140;2022-12-29T23:21:35;66.75;54.75;35.75
77411;PMS7003;66484;49.968;19.140;2022-12-29T23:24:01;61.75;52.00;32.25
